createdAt,value
2022-09-11T00:01:41.351Z,14.96
2022-09-11T00:04:09.222Z,15.01
2022-09-11T00:06:36.859Z,15.01
2022-09-11T00:09:06.606Z,15.00
2022-09-11T00:11:38.843Z,15.02
2022-09-11T00:14:06.679Z,15.02
2022-09-11T00:16:40.841Z,15.00
2022-09-11T00:19:12.389Z,14.99
2022-09-11T00:21:40.466Z,14.99
2022-09-11T00:24:10.950Z,14.97
2022-09-11T00:26:39.752Z,14.98
2022-09-11T00:29:07.605Z,14.95
2022-09-11T00:31:35.392Z,14.95
2022-09-11T00:34:03.128Z,15.01
2022-09-11T00:36:32.618Z,15.05
2022-09-11T00:39:00.748Z,15.14
2022-09-11T00:41:30.329Z,15.21
2022-09-11T00:44:26.218Z,15.30
2022-09-11T00:46:57.082Z,15.33
2022-09-11T00:49:31.534Z,15.31
2022-09-11T00:52:21.052Z,15.29
2022-09-11T00:54:52.782Z,15.29
2022-09-11T00:57:26.914Z,15.36
2022-09-11T00:59:59.514Z,15.37
2022-09-11T01:02:29.665Z,15.54
2022-09-11T01:04:58.854Z,15.46
2022-09-11T01:07:29.492Z,15.42
2022-09-11T01:09:57.899Z,15.29
2022-09-11T01:12:28.519Z,15.29
2022-09-11T01:15:09.703Z,15.29
2022-09-11T01:17:50.777Z,15.26
2022-09-11T01:20:37.641Z,15.28
2022-09-11T01:24:01.649Z,15.28
2022-09-11T01:27:08.093Z,15.28
2022-09-11T01:29:51.989Z,15.29
2022-09-11T01:32:25.094Z,15.30
2022-09-11T01:35:02.942Z,15.32
2022-09-11T01:37:41.720Z,15.31
2022-09-11T01:40:18.788Z,15.37
2022-09-11T01:42:47.195Z,15.37
2022-09-11T01:45:17.620Z,15.44
2022-09-11T01:47:48.320Z,15.46
2022-09-11T01:50:19.190Z,15.51
2022-09-11T01:52:56.475Z,15.46
2022-09-11T01:55:31.165Z,15.52
2022-09-11T01:58:05.032Z,15.55
2022-09-11T02:00:37.270Z,15.54
2022-09-11T02:03:17.574Z,15.56
2022-09-11T02:05:58.649Z,15.51
2022-09-11T02:08:37.254Z,15.53
2022-09-11T02:11:10.186Z,15.51
2022-09-11T02:13:50.170Z,15.53
2022-09-11T02:16:31.678Z,15.50
2022-09-11T02:19:06.990Z,15.45
2022-09-11T02:21:35.535Z,15.43
2022-09-11T02:24:03.869Z,15.40
2022-09-11T02:26:35.184Z,15.34
2022-09-11T02:29:02.995Z,15.31
2022-09-11T02:31:30.996Z,15.27
2022-09-11T02:33:58.967Z,15.30
2022-09-11T02:36:43.591Z,15.30
2022-09-11T02:39:43.318Z,15.27
2022-09-11T02:42:36.412Z,15.26
2022-09-11T02:45:39.471Z,15.24
2022-09-11T02:48:18.709Z,15.23
2022-09-11T02:51:33.930Z,15.29
2022-09-11T02:54:35.075Z,15.24
2022-09-11T02:57:12.657Z,15.25
2022-09-11T02:59:46.020Z,15.29
2022-09-11T03:02:15.821Z,15.33
2022-09-11T03:04:43.550Z,15.35
2022-09-11T03:07:11.333Z,15.38
2022-09-11T03:09:39.089Z,15.43
2022-09-11T03:12:07.159Z,15.47
2022-09-11T03:14:35.681Z,15.39
2022-09-11T03:17:03.483Z,15.38
2022-09-11T03:19:31.690Z,15.36
2022-09-11T03:21:59.342Z,15.35
2022-09-11T03:24:27.906Z,15.39
2022-09-11T03:26:55.712Z,15.35
2022-09-11T03:29:23.348Z,15.37
2022-09-11T03:31:51.064Z,15.33
2022-09-11T03:34:19.089Z,15.34
2022-09-11T03:36:48.096Z,15.33
2022-09-11T03:39:15.807Z,15.31
2022-09-11T03:41:43.610Z,15.33
2022-09-11T03:44:13.771Z,15.32
2022-09-11T03:46:41.404Z,15.44
2022-09-11T03:49:08.973Z,15.43
2022-09-11T03:51:36.627Z,15.40
2022-09-11T03:54:04.419Z,15.42
2022-09-11T03:56:32.534Z,15.40
2022-09-11T03:59:03.991Z,15.39
2022-09-11T04:01:31.660Z,15.35
2022-09-11T04:03:59.313Z,15.30
2022-09-11T04:06:26.980Z,15.28
2022-09-11T04:08:54.643Z,15.25
2022-09-11T04:11:23.652Z,15.34
2022-09-11T04:13:52.308Z,15.33
2022-09-11T04:16:21.257Z,15.35
2022-09-11T04:18:50.025Z,15.31
2022-09-11T04:21:19.566Z,15.29
2022-09-11T04:23:52.893Z,15.28
2022-09-11T04:26:22.589Z,15.24
2022-09-11T04:28:50.620Z,15.18
2022-09-11T04:31:19.989Z,15.17
2022-09-11T04:33:48.380Z,15.18
2022-09-11T04:36:18.837Z,15.14
2022-09-11T04:38:48.070Z,15.13
2022-09-11T04:41:17.429Z,15.10
2022-09-11T04:43:45.028Z,15.09
2022-09-11T04:46:14.591Z,15.07
2022-09-11T04:48:50.505Z,15.06
2022-09-11T04:51:35.824Z,15.03
2022-09-11T04:54:04.469Z,15.00
2022-09-11T04:56:35.363Z,14.98
2022-09-11T04:59:06.904Z,14.98
2022-09-11T05:01:35.253Z,14.98
2022-09-11T05:04:03.132Z,14.95
2022-09-11T05:06:31.567Z,15.02
2022-09-11T05:09:09.014Z,15.06
2022-09-11T05:11:39.347Z,15.13
2022-09-11T05:14:07.333Z,15.13
2022-09-11T05:16:36.845Z,15.14
2022-09-11T05:19:05.589Z,15.11
2022-09-11T05:21:34.469Z,15.11
2022-09-11T05:24:03.404Z,15.12
2022-09-11T05:26:37.060Z,15.05
2022-09-11T05:29:08.405Z,15.06
2022-09-11T05:31:36.485Z,15.07
2022-09-11T05:34:04.474Z,15.09
2022-09-11T05:36:32.420Z,15.09
2022-09-11T05:39:00.979Z,15.11
2022-09-11T05:41:29.307Z,15.13
2022-09-11T05:43:56.968Z,15.15
2022-09-11T05:46:24.673Z,15.14
2022-09-11T05:48:52.343Z,15.16
2022-09-11T05:51:22.457Z,15.18
2022-09-11T05:53:54.709Z,15.20
2022-09-11T05:56:25.037Z,15.24
2022-09-11T05:58:52.886Z,15.24
2022-09-11T06:01:23.455Z,15.26
2022-09-11T06:03:51.858Z,15.29
2022-09-11T06:06:22.263Z,15.30
2022-09-11T06:08:51.107Z,15.28
2022-09-11T06:11:20.233Z,15.28
2022-09-11T06:13:49.178Z,15.28
2022-09-11T06:16:19.332Z,15.24
2022-09-11T06:18:51.634Z,15.26
2022-09-11T06:21:22.428Z,15.27
2022-09-11T06:23:51.727Z,15.25
2022-09-11T06:26:25.216Z,15.27
2022-09-11T06:28:54.202Z,15.26
2022-09-11T06:31:26.879Z,15.23
2022-09-11T06:33:54.820Z,15.27
2022-09-11T06:36:25.046Z,15.29
2022-09-11T06:38:57.950Z,15.28
2022-09-11T06:41:26.735Z,15.29
2022-09-11T06:43:54.573Z,15.30
2022-09-11T06:46:24.090Z,15.33
2022-09-11T06:48:52.834Z,15.35
2022-09-11T06:51:22.586Z,15.37
2022-09-11T06:53:50.365Z,15.43
2022-09-11T06:56:19.585Z,15.49
2022-09-11T06:58:47.699Z,15.51
2022-09-11T07:01:20.810Z,15.54
2022-09-11T07:03:50.811Z,15.58
2022-09-11T07:06:21.113Z,15.56
2022-09-11T07:08:57.898Z,15.55
2022-09-11T07:11:25.531Z,15.58
2022-09-11T07:13:53.201Z,15.59
2022-09-11T07:16:20.889Z,15.60
2022-09-11T07:18:49.249Z,15.60
2022-09-11T07:21:22.906Z,15.63
2022-09-11T07:23:52.917Z,15.69
2022-09-11T07:26:22.971Z,15.76
2022-09-11T07:28:51.314Z,15.75
2022-09-11T07:31:21.977Z,15.81
2022-09-11T07:33:51.312Z,15.83
2022-09-11T07:36:23.678Z,15.86
2022-09-11T07:38:52.382Z,15.90
2022-09-11T07:41:22.370Z,15.95
2022-09-11T07:43:55.303Z,16.00
2022-09-11T07:46:23.732Z,16.04
2022-09-11T07:48:51.658Z,16.10
2022-09-11T07:51:20.276Z,16.15
2022-09-11T07:53:50.747Z,16.21
2022-09-11T07:56:26.156Z,16.27
2022-09-11T07:58:56.187Z,16.36
2022-09-11T08:01:30.828Z,16.43
2022-09-11T08:04:04.466Z,16.45
2022-09-11T08:06:35.156Z,16.49
2022-09-11T08:09:06.071Z,16.55
2022-09-11T08:11:37.569Z,16.55
2022-09-11T08:14:06.075Z,16.56
2022-09-11T08:16:33.966Z,16.58
2022-09-11T08:19:01.636Z,16.59
2022-09-11T08:21:29.301Z,16.60
2022-09-11T08:23:57.359Z,16.69
2022-09-11T08:26:28.419Z,16.78
2022-09-11T08:28:57.706Z,16.87
2022-09-11T08:31:28.109Z,16.95
2022-09-11T08:33:57.120Z,17.04
2022-09-11T08:36:25.656Z,17.07
2022-09-11T08:38:53.890Z,17.08
2022-09-11T08:41:24.310Z,17.07
2022-09-11T08:43:57.722Z,17.10
2022-09-11T08:46:29.834Z,17.10
2022-09-11T08:49:22.402Z,17.06
2022-09-11T08:51:52.560Z,17.05
2022-09-11T08:54:30.098Z,17.04
2022-09-11T08:57:25.423Z,17.06
2022-09-11T09:00:00.538Z,17.13
2022-09-11T09:02:42.841Z,17.16
2022-09-11T09:05:16.230Z,17.21
2022-09-11T09:08:15.989Z,17.22
2022-09-11T09:11:21.608Z,17.26
2022-09-11T09:14:16.367Z,17.28
2022-09-11T09:17:08.707Z,17.30
2022-09-11T09:20:14.810Z,17.34
2022-09-11T09:23:03.544Z,17.38
2022-09-11T09:25:36.239Z,17.41
2022-09-11T09:28:21.573Z,17.39
2022-09-11T09:30:58.491Z,17.46
2022-09-11T09:33:36.326Z,17.55
2022-09-11T09:36:18.698Z,17.58
2022-09-11T09:38:47.506Z,17.66
2022-09-11T09:41:20.773Z,17.76
2022-09-11T09:44:15.464Z,17.84
2022-09-11T09:46:51.195Z,17.99
2022-09-11T09:49:25.365Z,18.13
2022-09-11T09:52:04.080Z,18.25
2022-09-11T09:54:35.139Z,18.35
2022-09-11T09:57:12.927Z,18.38
2022-09-11T09:59:58.635Z,18.45
2022-09-11T10:02:40.993Z,18.42
2022-09-11T10:05:18.094Z,18.45
2022-09-11T10:07:54.878Z,18.47
2022-09-11T10:10:29.472Z,18.52
2022-09-11T10:13:18.075Z,18.56
2022-09-11T10:15:50.057Z,18.58
2022-09-11T10:18:30.552Z,18.63
2022-09-11T10:21:13.410Z,18.66
2022-09-11T10:24:03.346Z,18.71
2022-09-11T10:26:47.000Z,18.76
2022-09-11T10:29:20.244Z,18.80
2022-09-11T10:31:53.095Z,18.80
2022-09-11T10:34:23.354Z,18.75
2022-09-11T10:36:56.054Z,18.75
2022-09-11T10:39:27.212Z,18.71
2022-09-11T10:41:58.256Z,18.69
2022-09-11T10:44:29.102Z,18.65
2022-09-11T10:47:18.506Z,18.61
2022-09-11T10:49:48.296Z,18.61
2022-09-11T10:52:16.257Z,18.62
2022-09-11T10:55:16.386Z,18.68
2022-09-11T10:58:15.362Z,18.75
2022-09-11T11:00:43.190Z,18.78
2022-09-11T11:03:20.344Z,18.86
2022-09-11T11:05:59.183Z,18.94
2022-09-11T11:08:40.283Z,19.03
2022-09-11T11:11:21.778Z,19.13
2022-09-11T11:14:12.562Z,19.21
2022-09-11T11:17:25.203Z,19.29
2022-09-11T11:20:14.850Z,19.39
2022-09-11T11:23:16.421Z,19.44
2022-09-11T11:26:07.310Z,19.56
2022-09-11T11:28:44.546Z,19.69
2022-09-11T11:31:35.581Z,19.76
2022-09-11T11:34:15.790Z,19.85
2022-09-11T11:36:57.096Z,19.90
2022-09-11T11:39:30.834Z,19.93
2022-09-11T11:42:34.869Z,19.97
2022-09-11T11:45:33.319Z,20.05
2022-09-11T11:48:05.501Z,20.14
2022-09-11T11:50:44.563Z,20.19
2022-09-11T11:53:51.277Z,20.22
2022-09-11T11:56:41.922Z,20.21
2022-09-11T11:59:34.463Z,20.17
2022-09-11T12:02:11.028Z,20.19
2022-09-11T12:04:59.706Z,20.42
2022-09-11T12:07:32.638Z,20.48
2022-09-11T12:10:06.178Z,20.47
2022-09-11T12:12:47.207Z,20.52
2022-09-11T12:15:24.067Z,20.52
2022-09-11T12:18:08.234Z,20.59
2022-09-11T12:20:44.083Z,20.66
2022-09-11T12:23:56.924Z,20.71
2022-09-11T12:26:28.373Z,20.83
2022-09-11T12:29:15.147Z,20.91
2022-09-11T12:31:51.899Z,20.98
2022-09-11T12:34:24.828Z,21.04
2022-09-11T12:37:03.318Z,21.10
2022-09-11T12:39:34.307Z,21.15
2022-09-11T12:42:24.106Z,21.18
2022-09-11T12:44:51.664Z,21.23
2022-09-11T12:47:26.891Z,21.27
2022-09-11T12:50:00.966Z,21.30
2022-09-11T12:52:47.585Z,21.22
2022-09-11T12:55:36.647Z,21.18
2022-09-11T12:58:08.284Z,21.22
2022-09-11T13:00:43.667Z,21.09
2022-09-11T13:03:29.101Z,21.03
2022-09-11T13:06:02.612Z,20.93
2022-09-11T13:08:36.040Z,20.75
2022-09-11T13:11:37.767Z,20.60
2022-09-11T13:14:25.687Z,20.52
2022-09-11T13:16:53.490Z,20.48
2022-09-11T13:19:22.204Z,20.40
2022-09-11T13:21:55.273Z,20.27
2022-09-11T13:24:29.769Z,20.19
2022-09-11T13:27:02.668Z,20.17
2022-09-11T13:29:33.639Z,20.18
2022-09-11T13:32:13.631Z,20.12
2022-09-11T13:34:45.972Z,20.10
2022-09-11T13:37:32.345Z,20.00
2022-09-11T13:40:01.722Z,19.96
2022-09-11T13:42:30.331Z,19.90
2022-09-11T13:45:00.393Z,19.87
2022-09-11T13:47:30.675Z,19.80
2022-09-11T13:50:11.116Z,19.77
2022-09-11T13:52:39.329Z,19.77
2022-09-11T13:55:28.181Z,19.78
2022-09-11T13:57:59.504Z,19.80
2022-09-11T14:00:56.813Z,19.83
2022-09-11T14:03:33.057Z,19.85
2022-09-11T14:06:11.397Z,19.85
2022-09-11T14:08:41.570Z,19.88
2022-09-11T14:11:12.014Z,19.89
2022-09-11T14:13:50.257Z,19.94
2022-09-11T14:16:17.986Z,20.04
2022-09-11T14:19:02.820Z,20.10
2022-09-11T14:21:36.682Z,20.11
2022-09-11T14:24:10.142Z,20.13
2022-09-11T14:26:41.510Z,20.08
2022-09-11T14:29:32.738Z,20.07
2022-09-11T14:32:33.114Z,20.05
2022-09-11T14:35:02.144Z,19.98
2022-09-11T14:37:36.048Z,20.01
2022-09-11T14:40:15.014Z,20.02
2022-09-11T14:42:43.982Z,20.04
2022-09-11T14:45:19.934Z,20.01
2022-09-11T14:47:47.891Z,20.02
2022-09-11T14:50:15.705Z,20.02
2022-09-11T14:52:43.815Z,20.02
2022-09-11T14:55:20.321Z,20.03
2022-09-11T14:57:48.490Z,20.01
2022-09-11T15:00:18.659Z,20.02
2022-09-11T15:02:47.570Z,19.97
2022-09-11T15:05:17.690Z,19.93
2022-09-11T15:07:46.647Z,19.88
2022-09-11T15:10:15.921Z,19.88
2022-09-11T15:12:43.816Z,19.86
2022-09-11T15:15:11.976Z,19.88
2022-09-11T15:17:39.896Z,19.87
2022-09-11T15:20:10.179Z,19.87
2022-09-11T15:22:39.308Z,19.89
2022-09-11T15:25:07.731Z,19.89
2022-09-11T15:27:35.415Z,19.89
2022-09-11T15:30:03.439Z,19.90
2022-09-11T15:32:32.447Z,19.93
2022-09-11T15:35:00.023Z,19.98
2022-09-11T15:37:27.713Z,20.00
2022-09-11T15:39:55.492Z,20.03
2022-09-11T15:42:23.338Z,20.07
2022-09-11T15:44:51.718Z,20.09
2022-09-11T15:47:19.392Z,20.15
2022-09-11T15:49:48.913Z,20.20
2022-09-11T15:52:16.728Z,20.22
2022-09-11T15:54:46.534Z,20.26
2022-09-11T15:57:14.680Z,20.30
2022-09-11T15:59:43.165Z,20.35
2022-09-11T16:02:12.550Z,20.42
2022-09-11T16:04:40.283Z,20.46
2022-09-11T16:07:08.014Z,20.52
2022-09-11T16:09:36.255Z,20.57
2022-09-11T16:12:04.589Z,20.65
2022-09-11T16:14:34.507Z,20.67
2022-09-11T16:17:04.057Z,20.72
2022-09-11T16:19:32.758Z,20.70
2022-09-11T16:22:02.755Z,20.71
2022-09-11T16:24:31.991Z,20.72
2022-09-11T16:27:01.812Z,20.67
2022-09-11T16:29:56.563Z,20.65
2022-09-11T16:32:29.191Z,20.62
2022-09-11T16:34:58.712Z,20.62
2022-09-11T16:37:27.017Z,20.57
2022-09-11T16:39:54.730Z,20.55
2022-09-11T16:42:23.171Z,20.53
2022-09-11T16:44:51.390Z,20.50
2022-09-11T16:47:19.312Z,20.42
2022-09-11T16:52:35.745Z,20.27
2022-09-11T16:55:03.599Z,20.21
2022-09-11T16:57:32.071Z,20.15
2022-09-11T16:59:59.853Z,20.08
2022-09-11T17:02:28.012Z,20.04
2022-09-11T17:04:55.599Z,20.00
2022-09-11T17:07:24.813Z,19.89
2022-09-11T17:09:52.446Z,19.83
2022-09-11T17:12:20.049Z,19.78
2022-09-11T17:14:47.718Z,19.73
2022-09-11T17:17:15.486Z,19.69
2022-09-11T17:19:43.127Z,19.64
2022-09-11T17:22:11.371Z,19.60
2022-09-11T17:24:39.952Z,19.53
2022-09-11T17:27:07.697Z,19.49
2022-09-11T17:29:36.194Z,19.45
2022-09-11T17:32:26.862Z,19.41
2022-09-11T17:34:52.530Z,19.37
2022-09-11T17:37:20.205Z,19.29
2022-09-11T17:39:47.933Z,19.23
2022-09-11T17:42:15.567Z,19.19
2022-09-11T17:44:44.361Z,19.14
2022-09-11T17:47:12.074Z,19.09
2022-09-11T17:49:39.692Z,19.07
2022-09-11T17:52:08.317Z,19.02
2022-09-11T17:54:36.102Z,18.97
2022-09-11T17:57:03.815Z,18.92
2022-09-11T17:59:31.584Z,18.89
2022-09-11T18:02:01.009Z,18.88
2022-09-11T18:04:28.866Z,18.90
2022-09-11T18:06:56.485Z,18.94
2022-09-11T18:09:24.326Z,19.00
2022-09-11T18:11:54.966Z,19.06
2022-09-11T18:14:23.979Z,19.11
2022-09-11T18:16:51.712Z,19.17
2022-09-11T18:19:23.494Z,19.26
2022-09-11T18:21:51.946Z,19.34
2022-09-11T18:24:21.658Z,19.43
2022-09-11T18:26:52.048Z,19.48
2022-09-11T18:29:21.363Z,19.55
2022-09-11T18:31:52.781Z,19.61
2022-09-11T18:34:22.997Z,19.59
2022-09-11T18:36:50.760Z,19.52
2022-09-11T18:39:20.002Z,19.43
2022-09-11T18:41:48.890Z,19.33
2022-09-11T18:44:20.014Z,19.23
2022-09-11T18:46:48.925Z,19.13
2022-09-11T18:49:17.328Z,19.00
2022-09-11T18:51:44.984Z,18.91
2022-09-11T18:54:18.475Z,18.81
2022-09-11T18:56:46.670Z,18.69
2022-09-11T18:59:15.133Z,18.61
2022-09-11T19:01:43.369Z,18.49
2022-09-11T19:04:13.118Z,18.41
2022-09-11T19:06:41.479Z,18.27
2022-09-11T19:09:14.408Z,18.11
2022-09-11T19:11:42.566Z,18.03
2022-09-11T19:14:12.945Z,17.92
2022-09-11T19:16:41.065Z,17.82
2022-09-11T19:19:09.648Z,17.69
2022-09-11T19:21:39.401Z,17.61
2022-09-11T19:24:07.956Z,17.49
2022-09-11T19:26:39.903Z,17.40
2022-09-11T19:29:09.764Z,17.29
2022-09-11T19:31:40.087Z,17.20
2022-09-11T19:34:09.836Z,17.13
2022-09-11T19:36:37.654Z,17.06
2022-09-11T19:39:06.267Z,17.00
2022-09-11T19:41:38.323Z,16.94
2022-09-11T19:44:08.634Z,16.88
2022-09-11T19:46:37.008Z,16.84
2022-09-11T19:49:07.437Z,16.79
2022-09-11T19:51:38.258Z,16.77
2022-09-11T19:54:06.815Z,16.71
2022-09-11T19:56:37.074Z,16.66
2022-09-11T19:59:06.273Z,16.60
2022-09-11T20:01:34.206Z,16.57
2022-09-11T20:04:01.925Z,16.52
2022-09-11T20:06:31.682Z,16.50
2022-09-11T20:09:20.225Z,16.45
2022-09-11T20:11:47.684Z,16.42
2022-09-11T20:14:15.408Z,16.38
2022-09-11T20:16:43.012Z,16.36
2022-09-11T20:19:11.104Z,16.32
2022-09-11T20:21:39.341Z,16.30
2022-09-11T20:24:10.391Z,16.31
2022-09-11T20:26:38.108Z,16.29
2022-09-11T20:29:10.202Z,16.25
2022-09-11T20:31:47.644Z,16.23
2022-09-11T20:34:17.556Z,16.18
2022-09-11T20:36:45.523Z,16.15
2022-09-11T20:39:14.654Z,16.12
2022-09-11T20:41:42.357Z,16.08
2022-09-11T20:44:10.083Z,16.05
2022-09-11T20:46:38.045Z,16.03
2022-09-11T20:49:06.603Z,16.00
2022-09-11T20:51:35.449Z,16.01
2022-09-11T20:54:03.417Z,16.00
2022-09-11T20:56:31.667Z,16.01
2022-09-11T20:59:00.656Z,16.00
2022-09-11T21:01:33.528Z,15.99
2022-09-11T21:04:03.255Z,16.02
2022-09-11T21:06:33.589Z,16.01
2022-09-11T21:09:07.581Z,16.00
2022-09-11T21:11:36.410Z,16.02
2022-09-11T21:14:04.627Z,16.01
2022-09-11T21:16:32.673Z,16.03
2022-09-11T21:19:02.204Z,16.00
2022-09-11T21:21:31.059Z,15.99
2022-09-11T21:24:02.308Z,15.97
2022-09-11T21:26:31.662Z,15.96
2022-09-11T21:29:01.849Z,15.91
2022-09-11T21:31:29.589Z,15.87
2022-09-11T21:33:57.487Z,15.80
2022-09-11T21:36:25.556Z,15.75
2022-09-11T21:38:53.232Z,15.75
2022-09-11T21:41:20.970Z,15.71
2022-09-11T21:43:48.792Z,15.68
2022-09-11T21:46:16.617Z,15.65
2022-09-11T21:48:44.423Z,15.61
2022-09-11T21:51:14.274Z,15.59
2022-09-11T21:53:44.856Z,15.57
2022-09-11T21:56:21.492Z,15.54
2022-09-11T21:58:49.926Z,15.51
2022-09-11T22:01:17.831Z,15.47
2022-09-11T22:03:45.786Z,15.42
2022-09-11T22:06:14.350Z,15.40
2022-09-11T22:08:43.821Z,15.40
2022-09-11T22:11:12.478Z,15.37
2022-09-11T22:13:40.343Z,15.36
2022-09-11T22:16:10.755Z,15.35
2022-09-11T22:18:40.740Z,15.32
2022-09-11T22:21:09.638Z,15.30
2022-09-11T22:23:37.677Z,15.24
2022-09-11T22:26:09.911Z,15.23
2022-09-11T22:28:38.915Z,15.21
2022-09-11T22:31:18.014Z,15.17
2022-09-11T22:33:46.522Z,15.16
2022-09-11T22:36:20.840Z,15.10
2022-09-11T22:38:49.661Z,15.09
2022-09-11T22:41:18.152Z,15.06
2022-09-11T22:43:46.524Z,15.05
2022-09-11T22:46:14.851Z,15.02
2022-09-11T22:48:42.646Z,15.00
2022-09-11T22:51:10.786Z,14.95
2022-09-11T22:53:40.822Z,14.84
2022-09-11T22:56:08.909Z,14.80
2022-09-11T22:58:37.143Z,14.78
2022-09-11T23:01:05.965Z,14.76
2022-09-11T23:03:33.685Z,14.73
2022-09-11T23:06:21.897Z,14.70
2022-09-11T23:08:50.327Z,14.67
2022-09-11T23:11:20.857Z,14.67
2022-09-11T23:13:50.154Z,14.66
2022-09-11T23:16:21.708Z,14.65
2022-09-11T23:18:53.694Z,14.64
2022-09-11T23:21:21.317Z,14.64
2022-09-11T23:23:54.805Z,14.62
2022-09-11T23:26:24.246Z,14.59
2022-09-11T23:28:52.940Z,14.59
2022-09-11T23:31:26.177Z,14.57
2022-09-11T23:33:56.477Z,14.56
2022-09-11T23:36:24.758Z,14.54
2022-09-11T23:38:52.693Z,14.54
2022-09-11T23:41:20.495Z,14.50
2022-09-11T23:43:49.078Z,14.52
2022-09-11T23:46:17.599Z,14.51
2022-09-11T23:48:45.378Z,14.49
2022-09-11T23:51:13.600Z,14.48
2022-09-11T23:53:44.631Z,14.47
2022-09-11T23:56:15.273Z,14.46
2022-09-11T23:58:43.658Z,14.45
